SHT3H EGCC-EGLL
Flight info
| Callsign | SHT3H |
|---|---|
| Flight time | 0h 30m |
| Altitude | 19000 |
| Route | SANBA N859 HON |
| Aircraft | A320/M-SDE3FGHIKRWXY/S |
Departure
| Time | 2026-05-04 18:25 |
|---|---|
| Airport | Manchester Airport (EGCC) |
Arrival
| Time | 2026-05-04 18:55 |
|---|---|
| Airport | London Heathrow Airport (EGLL) |
| Time | Latitude | Longitude | Altitude | Speed | Heading |
|---|---|---|---|---|---|
| 2026-05-04 17:42 | 53.36836 | -2.28882 | 255 ft | 0 kts | 135° |
| 2026-05-04 18:10 | 53.36844 | -2.28897 | 255 ft | 3 kts | 135° |
| 2026-05-04 18:10 | 53.36857 | -2.28920 | 255 ft | 3 kts | 140° |
| 2026-05-04 18:10 | 53.36870 | -2.28932 | 255 ft | 3 kts | 210° |
| 2026-05-04 18:11 | 53.36885 | -2.28910 | 255 ft | 2 kts | 225° |
| 2026-05-04 18:11 | 53.36873 | -2.28929 | 255 ft | 3 kts | 225° |
| 2026-05-04 18:11 | 53.36868 | -2.28938 | 255 ft | 0 kts | 225° |
| 2026-05-04 18:13 | 53.36864 | -2.28944 | 255 ft | 2 kts | 225° |
| 2026-05-04 18:14 | 53.36848 | -2.28971 | 255 ft | 5 kts | 224° |
| 2026-05-04 18:14 | 53.36827 | -2.28998 | 255 ft | 4 kts | 214° |
| 2026-05-04 18:14 | 53.36791 | -2.29027 | 255 ft | 7 kts | 200° |
| 2026-05-04 18:15 | 53.36674 | -2.28934 | 255 ft | 11 kts | 144° |
| 2026-05-04 18:15 | 53.36551 | -2.28717 | 255 ft | 15 kts | 130° |
| 2026-05-04 18:15 | 53.36482 | -2.28590 | 255 ft | 15 kts | 133° |
| 2026-05-04 18:16 | 53.36398 | -2.28491 | 255 ft | 14 kts | 161° |
| 2026-05-04 18:16 | 53.36304 | -2.28405 | 255 ft | 17 kts | 137° |
| 2026-05-04 18:16 | 53.36226 | -2.28272 | 255 ft | 15 kts | 134° |
| 2026-05-04 18:17 | 53.36111 | -2.28081 | 255 ft | 10 kts | 137° |
| 2026-05-04 18:17 | 53.36100 | -2.28063 | 255 ft | 0 kts | 137° |
| 2026-05-04 18:19 | 53.36099 | -2.28061 | 255 ft | 1 kts | 137° |
| 2026-05-04 18:19 | 53.36075 | -2.28025 | 255 ft | 8 kts | 137° |
| 2026-05-04 18:20 | 53.36026 | -2.27950 | 255 ft | 11 kts | 137° |
| 2026-05-04 18:20 | 53.35964 | -2.27870 | 255 ft | 11 kts | 153° |
| 2026-05-04 18:20 | 53.35894 | -2.27840 | 255 ft | 12 kts | 168° |
| 2026-05-04 18:20 | 53.35813 | -2.27745 | 251 ft | 14 kts | 134° |
| 2026-05-04 18:21 | 53.35753 | -2.27662 | 250 ft | 13 kts | 149° |
| 2026-05-04 18:21 | 53.35679 | -2.27593 | 247 ft | 10 kts | 147° |
| 2026-05-04 18:21 | 53.35615 | -2.27510 | 245 ft | 13 kts | 141° |
| 2026-05-04 18:21 | 53.35601 | -2.27491 | 245 ft | 0 kts | 140° |
| 2026-05-04 18:22 | 53.35598 | -2.27486 | 245 ft | 2 kts | 140° |
| 2026-05-04 18:22 | 53.35571 | -2.27450 | 245 ft | 8 kts | 141° |
| 2026-05-04 18:22 | 53.35519 | -2.27379 | 248 ft | 12 kts | 142° |
| 2026-05-04 18:22 | 53.35438 | -2.27274 | 247 ft | 16 kts | 142° |
| 2026-05-04 18:23 | 53.35379 | -2.27208 | 246 ft | 5 kts | 154° |
| 2026-05-04 18:23 | 53.35308 | -2.27188 | 242 ft | 15 kts | 185° |
| 2026-05-04 18:23 | 53.35178 | -2.27235 | 231 ft | 17 kts | 193° |
| 2026-05-04 18:23 | 53.35108 | -2.27259 | 228 ft | 1 kts | 191° |
| 2026-05-04 18:24 | 53.35065 | -2.27274 | 229 ft | 11 kts | 193° |
| 2026-05-04 18:24 | 53.34998 | -2.27345 | 225 ft | 0 kts | 227° |
| 2026-05-04 18:24 | 53.34992 | -2.27357 | 225 ft | 3 kts | 229° |
| 2026-05-04 18:24 | 53.34879 | -2.27586 | 222 ft | 61 kts | 231° |
| 2026-05-04 18:25 | 53.34477 | -2.28421 | 226 ft | 121 kts | 231° |
| 2026-05-04 18:25 | 53.33857 | -2.29687 | 382 ft | 150 kts | 230° |
| 2026-05-04 18:25 | 53.33204 | -2.31048 | 972 ft | 150 kts | 233° |
| 2026-05-04 18:25 | 53.32553 | -2.32428 | 1594 ft | 154 kts | 236° |
| 2026-05-04 18:26 | 53.31931 | -2.34013 | 1907 ft | 173 kts | 258° |
| 2026-05-04 18:26 | 53.32106 | -2.36015 | 2186 ft | 188 kts | 303° |
| 2026-05-04 18:26 | 53.32882 | -2.37946 | 2525 ft | 212 kts | 296° |
| 2026-05-04 18:26 | 53.33234 | -2.40472 | 2915 ft | 238 kts | 270° |
| 2026-05-04 18:27 | 53.32786 | -2.43232 | 3540 ft | 256 kts | 240° |
| 2026-05-04 18:27 | 53.31501 | -2.45317 | 4424 ft | 264 kts | 208° |
| 2026-05-04 18:27 | 53.29705 | -2.45930 | 5332 ft | 271 kts | 175° |
| 2026-05-04 18:27 | 53.27834 | -2.45363 | 6244 ft | 276 kts | 166° |
| 2026-05-04 18:28 | 53.26046 | -2.44141 | 7107 ft | 281 kts | 152° |
| 2026-05-04 18:28 | 53.24317 | -2.42563 | 7946 ft | 285 kts | 153° |
| 2026-05-04 18:28 | 53.22559 | -2.40987 | 8824 ft | 288 kts | 153° |
| 2026-05-04 18:28 | 53.20774 | -2.39403 | 9676 ft | 293 kts | 153° |
| 2026-05-04 18:29 | 53.18951 | -2.37801 | 10323 ft | 304 kts | 153° |
| 2026-05-04 18:29 | 53.17006 | -2.36103 | 10559 ft | 327 kts | 153° |
| 2026-05-04 18:29 | 53.14937 | -2.34302 | 10966 ft | 341 kts | 153° |
| 2026-05-04 18:29 | 53.12821 | -2.32458 | 11632 ft | 346 kts | 153° |
| 2026-05-04 18:30 | 53.08506 | -2.28697 | 13087 ft | 353 kts | 154° |
| 2026-05-04 18:30 | 53.06289 | -2.26762 | 13827 ft | 357 kts | 154° |
| 2026-05-04 18:30 | 53.04082 | -2.24834 | 14474 ft | 360 kts | 154° |
| 2026-05-04 18:31 | 53.01878 | -2.22917 | 15103 ft | 363 kts | 154° |
| 2026-05-04 18:31 | 52.99631 | -2.20971 | 15746 ft | 366 kts | 154° |
| 2026-05-04 18:31 | 52.97367 | -2.19015 | 16384 ft | 368 kts | 154° |
| 2026-05-04 18:31 | 52.95089 | -2.17040 | 16894 ft | 370 kts | 153° |
| 2026-05-04 18:32 | 52.92803 | -2.15054 | 17029 ft | 374 kts | 153° |
| 2026-05-04 18:32 | 52.90449 | -2.13015 | 17058 ft | 386 kts | 153° |
| 2026-05-04 18:32 | 52.88054 | -2.10948 | 17056 ft | 389 kts | 153° |
| 2026-05-04 18:32 | 52.85648 | -2.08877 | 17058 ft | 390 kts | 153° |
| 2026-05-04 18:33 | 52.83240 | -2.06803 | 17060 ft | 390 kts | 153° |
| 2026-05-04 18:33 | 52.80833 | -2.04728 | 17060 ft | 390 kts | 153° |
| 2026-05-04 18:33 | 52.78424 | -2.02657 | 17061 ft | 390 kts | 154° |
| 2026-05-04 18:33 | 52.76014 | -2.00594 | 17053 ft | 390 kts | 154° |
| 2026-05-04 18:34 | 52.73602 | -1.98535 | 17047 ft | 390 kts | 154° |
| 2026-05-04 18:34 | 52.71197 | -1.96484 | 17052 ft | 390 kts | 154° |
| 2026-05-04 18:34 | 52.68785 | -1.94427 | 17053 ft | 390 kts | 154° |
| 2026-05-04 18:34 | 52.66377 | -1.92370 | 17056 ft | 390 kts | 154° |
| 2026-05-04 18:35 | 52.63968 | -1.90313 | 17057 ft | 390 kts | 154° |
| 2026-05-04 18:35 | 52.61527 | -1.88229 | 17060 ft | 390 kts | 154° |
| 2026-05-04 18:35 | 52.59147 | -1.86202 | 17066 ft | 390 kts | 154° |
| 2026-05-04 18:35 | 52.56702 | -1.84129 | 17069 ft | 390 kts | 154° |
| 2026-05-04 18:36 | 52.54289 | -1.82085 | 17071 ft | 390 kts | 154° |
| 2026-05-04 18:36 | 52.51881 | -1.80046 | 17072 ft | 390 kts | 154° |
| 2026-05-04 18:36 | 52.49468 | -1.78004 | 17073 ft | 390 kts | 154° |
| 2026-05-04 18:36 | 52.47055 | -1.75965 | 17076 ft | 390 kts | 154° |
| 2026-05-04 18:37 | 52.44643 | -1.73928 | 17078 ft | 390 kts | 154° |
| 2026-05-04 18:37 | 52.42231 | -1.71894 | 17078 ft | 390 kts | 154° |
| 2026-05-04 18:37 | 52.39820 | -1.69864 | 17080 ft | 390 kts | 154° |
| 2026-05-04 18:37 | 52.37408 | -1.67837 | 17078 ft | 390 kts | 154° |
| 2026-05-04 18:38 | 52.35101 | -1.65506 | 17073 ft | 391 kts | 144° |
| 2026-05-04 18:38 | 52.33017 | -1.62638 | 17073 ft | 392 kts | 140° |
| 2026-05-04 18:38 | 52.30957 | -1.59720 | 17071 ft | 392 kts | 140° |
| 2026-05-04 18:38 | 52.28895 | -1.56808 | 17073 ft | 392 kts | 141° |
| 2026-05-04 18:39 | 52.26831 | -1.53900 | 17076 ft | 392 kts | 141° |
| 2026-05-04 18:39 | 52.24765 | -1.50997 | 17080 ft | 392 kts | 141° |
| 2026-05-04 18:39 | 52.22700 | -1.48100 | 17082 ft | 391 kts | 141° |
| 2026-05-04 18:39 | 52.20636 | -1.45207 | 17076 ft | 391 kts | 141° |
| 2026-05-04 18:40 | 52.18593 | -1.42348 | 17076 ft | 391 kts | 141° |
| 2026-05-04 18:40 | 52.16527 | -1.39460 | 17077 ft | 391 kts | 141° |
| 2026-05-04 18:40 | 52.14460 | -1.36572 | 17076 ft | 391 kts | 141° |
| 2026-05-04 18:40 | 52.12393 | -1.33685 | 17076 ft | 390 kts | 141° |
| 2026-05-04 18:41 | 52.10359 | -1.30847 | 16771 ft | 380 kts | 141° |
| 2026-05-04 18:41 | 52.08377 | -1.28088 | 16427 ft | 370 kts | 141° |
| 2026-05-04 18:41 | 52.06441 | -1.25404 | 16099 ft | 361 kts | 141° |
| 2026-05-04 18:41 | 52.04522 | -1.22749 | 15757 ft | 355 kts | 141° |
| 2026-05-04 18:42 | 52.02655 | -1.20170 | 15420 ft | 352 kts | 141° |
| 2026-05-04 18:42 | 52.00813 | -1.17629 | 15102 ft | 351 kts | 141° |
| 2026-05-04 18:42 | 51.98959 | -1.15066 | 14786 ft | 350 kts | 141° |
| 2026-05-04 18:42 | 51.97107 | -1.12501 | 14461 ft | 340 kts | 141° |
| 2026-05-04 18:43 | 51.95320 | -1.10028 | 14151 ft | 337 kts | 141° |
| 2026-05-04 18:43 | 51.93535 | -1.07562 | 13822 ft | 337 kts | 141° |
| 2026-05-04 18:43 | 51.91755 | -1.05109 | 13423 ft | 334 kts | 141° |
| 2026-05-04 18:43 | 51.89960 | -1.02832 | 13030 ft | 328 kts | 152° |
| 2026-05-04 18:44 | 51.87887 | -1.01472 | 12629 ft | 310 kts | 165° |
| 2026-05-04 18:44 | 51.87219 | -1.01138 | 12502 ft | 306 kts | 165° |
| 2026-05-04 18:44 | 51.83944 | -0.99560 | 11862 ft | 286 kts | 166° |
| 2026-05-04 18:44 | 51.82065 | -0.98665 | 11480 ft | 277 kts | 166° |
| 2026-05-04 18:45 | 51.80246 | -0.97804 | 11119 ft | 268 kts | 166° |
| 2026-05-04 18:45 | 51.78487 | -0.96979 | 10780 ft | 259 kts | 166° |
| 2026-05-04 18:45 | 51.76760 | -0.96188 | 10438 ft | 257 kts | 166° |
| 2026-05-04 18:45 | 51.75050 | -0.95396 | 10100 ft | 255 kts | 166° |
| 2026-05-04 18:46 | 51.73352 | -0.94577 | 9755 ft | 255 kts | 166° |
| 2026-05-04 18:46 | 51.72213 | -0.94024 | 9502 ft | 252 kts | 166° |
| 2026-05-04 18:46 | 51.70533 | -0.93219 | 9129 ft | 251 kts | 165° |
| 2026-05-04 18:46 | 51.68855 | -0.92451 | 8770 ft | 250 kts | 166° |
| 2026-05-04 18:47 | 51.67185 | -0.91690 | 8411 ft | 248 kts | 166° |
| 2026-05-04 18:47 | 51.65535 | -0.90911 | 8052 ft | 247 kts | 166° |
| 2026-05-04 18:47 | 51.63887 | -0.90145 | 7701 ft | 246 kts | 166° |
| 2026-05-04 18:47 | 51.62243 | -0.89403 | 7336 ft | 245 kts | 166° |
| 2026-05-04 18:48 | 51.60605 | -0.88673 | 6966 ft | 244 kts | 166° |
| 2026-05-04 18:48 | 51.58973 | -0.87952 | 6560 ft | 243 kts | 166° |
| 2026-05-04 18:48 | 51.57359 | -0.87217 | 6126 ft | 239 kts | 166° |
| 2026-05-04 18:48 | 51.55777 | -0.86517 | 5772 ft | 232 kts | 165° |
| 2026-05-04 18:49 | 51.54239 | -0.85882 | 5438 ft | 224 kts | 166° |
| 2026-05-04 18:49 | 51.52748 | -0.85285 | 5116 ft | 217 kts | 166° |
| 2026-05-04 18:49 | 51.51310 | -0.84716 | 4785 ft | 206 kts | 166° |
| 2026-05-04 18:49 | 51.50030 | -0.83890 | 4318 ft | 194 kts | 139° |
| 2026-05-04 18:50 | 51.49178 | -0.82270 | 4012 ft | 187 kts | 123° |
| 2026-05-04 18:50 | 51.48452 | -0.80524 | 4003 ft | 189 kts | 122° |
| 2026-05-04 18:50 | 51.47783 | -0.78702 | 3859 ft | 190 kts | 109° |
| 2026-05-04 18:50 | 51.47594 | -0.76661 | 3590 ft | 184 kts | 88° |
| 2026-05-04 18:51 | 51.47609 | -0.74617 | 3333 ft | 182 kts | 87° |
| 2026-05-04 18:51 | 51.47624 | -0.72601 | 3086 ft | 179 kts | 87° |
| 2026-05-04 18:51 | 51.47637 | -0.70597 | 2840 ft | 179 kts | 87° |
| 2026-05-04 18:51 | 51.47649 | -0.68609 | 2598 ft | 175 kts | 87° |
| 2026-05-04 18:52 | 51.47659 | -0.66751 | 2386 ft | 162 kts | 86° |
| 2026-05-04 18:52 | 51.47669 | -0.64966 | 2161 ft | 159 kts | 86° |
| 2026-05-04 18:52 | 51.47679 | -0.63212 | 1945 ft | 156 kts | 86° |
| 2026-05-04 18:52 | 51.47688 | -0.61470 | 1733 ft | 157 kts | 86° |
| 2026-05-04 18:53 | 51.47697 | -0.59718 | 1519 ft | 157 kts | 87° |
| 2026-05-04 18:53 | 51.47706 | -0.57981 | 1308 ft | 155 kts | 86° |
| 2026-05-04 18:53 | 51.47713 | -0.56345 | 1096 ft | 140 kts | 86° |
| 2026-05-04 18:53 | 51.47699 | -0.54829 | 847 ft | 134 kts | 89° |
| 2026-05-04 18:54 | 51.47690 | -0.53326 | 625 ft | 132 kts | 86° |
| 2026-05-04 18:54 | 51.47711 | -0.51836 | 479 ft | 133 kts | 85° |
| 2026-05-04 18:54 | 51.47734 | -0.50853 | 368 ft | 133 kts | 86° |
| 2026-05-04 18:54 | 51.47750 | -0.48676 | 139 ft | 131 kts | 87° |
| 2026-05-04 18:55 | 51.47778 | -0.47339 | 88 ft | 113 kts | 82° |
| 2026-05-04 18:55 | 51.47756 | -0.45966 | 89 ft | 33 kts | 89° |
| 2026-05-04 18:55 | 51.47759 | -0.45639 | 87 ft | 21 kts | 90° |
| 2026-05-04 18:56 | 51.47684 | -0.45474 | 86 ft | 18 kts | 167° |
| 2026-05-04 18:56 | 51.47599 | -0.45585 | 87 ft | 19 kts | 256° |
| 2026-05-04 18:56 | 51.47592 | -0.45806 | 86 ft | 21 kts | 269° |
| 2026-05-04 18:56 | 51.47591 | -0.46058 | 86 ft | 24 kts | 269° |
| 2026-05-04 18:57 | 51.47591 | -0.46341 | 86 ft | 27 kts | 270° |
| 2026-05-04 18:57 | 51.47591 | -0.46640 | 86 ft | 25 kts | 268° |
| 2026-05-04 18:57 | 51.47584 | -0.46936 | 88 ft | 28 kts | 268° |
| 2026-05-04 18:57 | 51.47582 | -0.47242 | 86 ft | 28 kts | 270° |
| 2026-05-04 18:58 | 51.47582 | -0.47516 | 88 ft | 24 kts | 269° |
| 2026-05-04 18:58 | 51.47581 | -0.47777 | 87 ft | 20 kts | 270° |
| 2026-05-04 18:58 | 51.47579 | -0.48010 | 87 ft | 22 kts | 269° |
| 2026-05-04 18:58 | 51.47578 | -0.48268 | 87 ft | 24 kts | 270° |
| 2026-05-04 18:59 | 51.47571 | -0.48429 | 88 ft | 13 kts | 237° |
| 2026-05-04 18:59 | 51.47483 | -0.48472 | 90 ft | 14 kts | 184° |
| 2026-05-04 18:59 | 51.47397 | -0.48500 | 89 ft | 10 kts | 229° |
| 2026-05-04 18:59 | 51.47398 | -0.48591 | 86 ft | 3 kts | 275° |